createdAt,value
2022-08-01T00:00:44.053Z,20.79
2022-08-01T00:01:44.092Z,20.78
2022-08-01T00:02:44.083Z,20.78
2022-08-01T00:03:44.047Z,20.77
2022-08-01T00:04:44.019Z,20.76
2022-08-01T00:05:43.986Z,20.75
2022-08-01T00:06:43.969Z,20.73
2022-08-01T00:07:43.986Z,20.72
2022-08-01T00:08:43.960Z,20.71
2022-08-01T00:09:43.937Z,20.69
2022-08-01T00:10:43.942Z,20.68
2022-08-01T00:11:43.926Z,20.66
2022-08-01T00:12:43.894Z,20.65
2022-08-01T00:13:43.900Z,20.63
2022-08-01T00:14:43.870Z,20.61
2022-08-01T00:15:45.237Z,20.59
2022-08-01T00:16:43.867Z,20.57
2022-08-01T00:17:43.851Z,20.54
2022-08-01T00:18:43.828Z,20.52
2022-08-01T00:19:43.845Z,20.50
2022-08-01T00:20:43.817Z,20.48
2022-08-01T00:21:52.115Z,20.46
2022-08-01T00:22:43.810Z,20.44
2022-08-01T00:23:43.748Z,20.41
2022-08-01T00:24:43.761Z,20.38
2022-08-01T00:25:43.729Z,20.36
2022-08-01T00:26:43.730Z,20.35
2022-08-01T00:27:43.712Z,20.34
2022-08-01T00:28:43.696Z,20.33
2022-08-01T00:30:11.156Z,20.32
2022-08-01T00:30:43.681Z,20.32
2022-08-01T00:31:43.656Z,20.31
2022-08-01T00:32:43.636Z,20.30
2022-08-01T00:33:43.634Z,20.29
2022-08-01T00:34:43.601Z,20.28
2022-08-01T00:35:43.604Z,20.26
2022-08-01T00:36:43.583Z,20.24
2022-08-01T00:37:43.580Z,20.22
2022-08-01T00:38:43.574Z,20.20
2022-08-01T00:39:43.714Z,20.19
2022-08-01T00:40:43.539Z,20.17
2022-08-01T00:41:43.518Z,20.15
2022-08-01T00:42:43.997Z,20.14
2022-08-01T00:43:43.498Z,20.13
2022-08-01T00:44:43.472Z,20.13
2022-08-01T00:45:43.490Z,20.12
2022-08-01T00:46:43.474Z,20.12
2022-08-01T00:47:43.431Z,20.11
2022-08-01T00:48:43.425Z,20.11
2022-08-01T00:49:43.400Z,20.11
2022-08-01T00:50:43.415Z,20.12
2022-08-01T00:51:43.410Z,20.13
2022-08-01T00:52:43.383Z,20.14
2022-08-01T00:53:51.163Z,20.13
2022-08-01T00:54:43.376Z,20.13
2022-08-01T00:55:43.334Z,20.12
2022-08-01T00:56:43.339Z,20.11
2022-08-01T00:58:03.609Z,20.10
2022-08-01T00:58:43.318Z,20.09
2022-08-01T00:59:43.296Z,20.08
2022-08-01T01:00:52.081Z,20.07
2022-08-01T01:01:46.706Z,20.06
2022-08-01T01:02:43.254Z,20.05
2022-08-01T01:03:58.534Z,20.03
2022-08-01T01:04:43.229Z,20.02
2022-08-01T01:05:43.213Z,20.00
2022-08-01T01:06:43.179Z,19.99
2022-08-01T01:07:49.554Z,19.98
2022-08-01T01:08:43.167Z,19.95
2022-08-01T01:09:43.140Z,19.92
2022-08-01T01:10:43.142Z,19.89
2022-08-01T01:11:43.210Z,19.86
2022-08-01T01:12:45.821Z,19.84
2022-08-01T01:13:48.451Z,19.81
2022-08-01T01:14:43.106Z,19.79
2022-08-01T01:15:43.086Z,19.78
2022-08-01T01:16:43.095Z,19.78
2022-08-01T01:17:51.513Z,19.78
2022-08-01T01:18:43.032Z,19.79
2022-08-01T01:19:43.030Z,19.79
2022-08-01T01:20:42.999Z,19.78
2022-08-01T01:21:42.975Z,19.78
2022-08-01T01:22:42.987Z,19.78
2022-08-01T01:23:42.988Z,19.77
2022-08-01T01:24:42.947Z,19.76
2022-08-01T01:25:42.928Z,19.75
2022-08-01T01:26:42.924Z,19.74
2022-08-01T01:27:42.906Z,19.72
2022-08-01T01:28:42.895Z,19.70
2022-08-01T01:29:58.600Z,19.68
2022-08-01T01:30:42.908Z,19.66
2022-08-01T01:31:42.879Z,19.64
2022-08-01T01:32:42.863Z,19.61
2022-08-01T01:33:47.001Z,19.59
2022-08-01T01:34:42.826Z,19.56
2022-08-01T01:35:42.791Z,19.54
2022-08-01T01:36:42.828Z,19.50
2022-08-01T01:37:42.795Z,19.46
2022-08-01T01:38:42.808Z,19.42
2022-08-01T01:39:45.188Z,19.38
2022-08-01T01:40:42.770Z,19.34
2022-08-01T01:41:42.723Z,19.30
2022-08-01T01:42:42.748Z,19.26
2022-08-01T01:43:42.703Z,19.22
2022-08-01T01:44:42.717Z,19.18
2022-08-01T01:45:42.701Z,19.14
2022-08-01T01:46:42.690Z,19.10
2022-08-01T01:47:42.638Z,19.07
2022-08-01T01:48:42.655Z,19.03
2022-08-01T01:49:42.622Z,18.99
2022-08-01T01:50:42.635Z,18.96
2022-08-01T01:51:42.578Z,18.92
2022-08-01T01:52:42.593Z,18.89
2022-08-01T01:53:42.574Z,18.86
2022-08-01T01:54:42.551Z,18.83
2022-08-01T01:55:49.680Z,18.81
2022-08-01T01:56:42.577Z,18.78
2022-08-01T01:57:42.502Z,18.76
2022-08-01T01:58:42.545Z,18.75
2022-08-01T01:59:42.490Z,18.74
2022-08-01T02:00:42.472Z,18.73
2022-08-01T02:02:04.971Z,18.73
2022-08-01T02:02:42.506Z,18.73
2022-08-01T02:03:42.436Z,18.72
2022-08-01T02:04:42.423Z,18.72
2022-08-01T02:05:42.395Z,18.72
2022-08-01T02:06:42.414Z,18.71
2022-08-01T02:07:42.396Z,18.71
2022-08-01T02:08:42.383Z,18.70
2022-08-01T02:09:42.363Z,18.69
2022-08-01T02:10:42.368Z,18.67
2022-08-01T02:12:07.323Z,18.65
2022-08-01T02:12:42.374Z,18.64
2022-08-01T02:13:42.287Z,18.64
2022-08-01T02:14:42.300Z,18.63
2022-08-01T02:15:59.371Z,18.63
2022-08-01T02:16:42.291Z,18.63
2022-08-01T02:17:42.264Z,18.64
2022-08-01T02:18:42.256Z,18.65
2022-08-01T02:19:42.231Z,18.66
2022-08-01T02:20:42.210Z,18.67
2022-08-01T02:21:42.203Z,18.67
2022-08-01T02:22:42.202Z,18.67
2022-08-01T02:23:42.192Z,18.66
2022-08-01T02:24:42.186Z,18.65
2022-08-01T02:26:09.597Z,18.64
2022-08-01T02:26:42.161Z,18.61
2022-08-01T02:27:42.135Z,18.59
2022-08-01T02:28:42.117Z,18.56
2022-08-01T02:29:42.100Z,18.54
2022-08-01T02:30:42.082Z,18.51
2022-08-01T02:31:42.073Z,18.48
2022-08-01T02:32:42.050Z,18.44
2022-08-01T02:33:42.070Z,18.40
2022-08-01T02:34:42.042Z,18.36
2022-08-01T02:36:31.276Z,18.32
2022-08-01T02:36:42.033Z,18.27
2022-08-01T02:37:44.461Z,18.22
2022-08-01T02:38:41.990Z,18.17
2022-08-01T02:39:41.973Z,18.13
2022-08-01T02:40:41.962Z,18.09
2022-08-01T02:41:41.944Z,18.04
2022-08-01T02:42:41.939Z,18.00
2022-08-01T02:43:41.899Z,17.96
2022-08-01T02:44:41.912Z,17.92
2022-08-01T02:45:41.911Z,17.88
2022-08-01T02:46:41.860Z,17.82
2022-08-01T02:47:41.855Z,17.77
2022-08-01T02:48:41.847Z,17.72
2022-08-01T02:49:41.819Z,17.68
2022-08-01T02:50:41.834Z,17.65
2022-08-01T02:51:41.807Z,17.63
2022-08-01T02:52:41.798Z,17.62
2022-08-01T02:53:44.342Z,17.61
2022-08-01T02:54:41.760Z,17.60
2022-08-01T02:55:41.765Z,17.59
2022-08-01T02:56:41.738Z,17.59
2022-08-01T02:57:52.159Z,17.59
2022-08-01T02:58:41.712Z,17.59
2022-08-01T02:59:41.707Z,17.59
2022-08-01T03:00:41.704Z,17.59
2022-08-01T03:01:42.192Z,17.59
2022-08-01T03:02:41.711Z,17.59
2022-08-01T03:03:41.666Z,17.60
2022-08-01T03:04:41.649Z,17.61
2022-08-01T03:05:41.636Z,17.62
2022-08-01T03:06:44.357Z,17.62
2022-08-01T03:07:41.589Z,17.62
2022-08-01T03:08:41.598Z,17.62
2022-08-01T03:09:41.612Z,17.62
2022-08-01T03:10:41.562Z,17.63
2022-08-01T03:11:41.553Z,17.63
2022-08-01T03:12:41.537Z,17.63
2022-08-01T03:13:41.516Z,17.62
2022-08-01T03:14:41.518Z,17.61
2022-08-01T03:15:41.483Z,17.60
2022-08-01T03:16:41.461Z,17.58
2022-08-01T03:17:41.469Z,17.55
2022-08-01T03:18:41.467Z,17.53
2022-08-01T03:19:41.442Z,17.52
2022-08-01T03:20:41.410Z,17.51
2022-08-01T03:21:41.425Z,17.50
2022-08-01T03:22:41.411Z,17.49
2022-08-01T03:23:41.446Z,17.47
2022-08-01T03:24:41.394Z,17.44
2022-08-01T03:25:41.365Z,17.41
2022-08-01T03:26:41.351Z,17.38
2022-08-01T03:27:41.332Z,17.37
2022-08-01T03:28:41.344Z,17.36
2022-08-01T03:29:41.319Z,17.35
2022-08-01T03:30:41.321Z,17.35
2022-08-01T03:31:41.272Z,17.35
2022-08-01T03:32:41.281Z,17.35
2022-08-01T03:33:41.258Z,17.33
2022-08-01T03:34:41.261Z,17.31
2022-08-01T03:35:41.202Z,17.28
2022-08-01T03:36:41.266Z,17.26
2022-08-01T03:37:54.582Z,17.24
2022-08-01T03:38:41.231Z,17.22
2022-08-01T03:39:41.143Z,17.19
2022-08-01T03:40:41.165Z,17.17
2022-08-01T03:41:41.135Z,17.14
2022-08-01T03:42:41.112Z,17.11
2022-08-01T03:43:41.112Z,17.09
2022-08-01T03:44:41.112Z,17.07
2022-08-01T03:45:41.085Z,17.05
2022-08-01T03:46:41.089Z,17.04
2022-08-01T03:47:44.649Z,17.05
2022-08-01T03:48:41.059Z,17.07
2022-08-01T03:49:41.010Z,17.10
2022-08-01T03:50:41.030Z,17.14
2022-08-01T03:51:41.004Z,17.18
2022-08-01T03:52:40.994Z,17.22
2022-08-01T03:53:42.402Z,17.28
2022-08-01T03:54:40.971Z,17.32
2022-08-01T03:55:40.944Z,17.37
2022-08-01T03:56:40.926Z,17.41
2022-08-01T03:57:41.071Z,17.45
2022-08-01T03:58:40.906Z,17.49
2022-08-01T03:59:40.925Z,17.53
2022-08-01T04:00:40.890Z,17.56
2022-08-01T04:01:40.892Z,17.58
2022-08-01T04:02:40.858Z,17.59
2022-08-01T04:03:41.806Z,17.60
2022-08-01T04:04:40.816Z,17.59
2022-08-01T04:05:40.825Z,17.57
2022-08-01T04:06:40.808Z,17.56
2022-08-01T04:07:40.813Z,17.54
2022-08-01T04:08:40.788Z,17.53
2022-08-01T04:09:40.766Z,17.52
2022-08-01T04:10:40.763Z,17.51
2022-08-01T04:11:40.741Z,17.50
2022-08-01T04:12:40.717Z,17.50
2022-08-01T04:13:40.739Z,17.52
2022-08-01T04:14:40.696Z,17.54
2022-08-01T04:15:40.667Z,17.57
2022-08-01T04:16:40.689Z,17.61
2022-08-01T04:17:40.660Z,17.66
2022-08-01T04:18:40.657Z,17.72
2022-08-01T04:19:40.629Z,17.78
2022-08-01T04:20:40.647Z,17.85
2022-08-01T04:21:40.604Z,17.92
2022-08-01T04:22:40.648Z,17.98
2022-08-01T04:23:40.587Z,18.04
2022-08-01T04:24:40.581Z,18.10
2022-08-01T04:25:40.559Z,18.15
2022-08-01T04:26:40.551Z,18.19
2022-08-01T04:27:50.250Z,18.23
2022-08-01T04:28:40.556Z,18.27
2022-08-01T04:29:40.514Z,18.30
2022-08-01T04:30:40.508Z,18.33
2022-08-01T04:31:40.494Z,18.36
2022-08-01T04:32:40.454Z,18.39
2022-08-01T04:33:40.439Z,18.42
2022-08-01T04:34:40.450Z,18.45
2022-08-01T04:36:03.244Z,18.47
2022-08-01T04:36:40.430Z,18.50
2022-08-01T04:37:40.387Z,18.52
2022-08-01T04:38:40.378Z,18.54
2022-08-01T04:39:50.773Z,18.57
2022-08-01T04:40:40.361Z,18.59
2022-08-01T04:41:40.353Z,18.62
2022-08-01T04:42:40.333Z,18.64
2022-08-01T04:43:40.327Z,18.65
2022-08-01T04:44:40.331Z,18.66
2022-08-01T04:45:40.307Z,18.68
2022-08-01T04:46:40.284Z,18.69
2022-08-01T04:47:40.257Z,18.71
2022-08-01T04:48:40.236Z,18.73
2022-08-01T04:49:47.750Z,18.74
2022-08-01T04:50:40.216Z,18.75
2022-08-01T04:51:40.213Z,18.76
2022-08-01T04:52:40.192Z,18.77
2022-08-01T04:53:40.199Z,18.77
2022-08-01T04:54:40.173Z,18.78
2022-08-01T04:55:40.166Z,18.78
2022-08-01T04:56:40.157Z,18.79
2022-08-01T04:57:40.173Z,18.79
2022-08-01T04:58:40.114Z,18.80
2022-08-01T04:59:40.095Z,18.81
2022-08-01T05:00:40.101Z,18.83
2022-08-01T05:01:40.170Z,18.85
2022-08-01T05:02:40.073Z,18.86
2022-08-01T05:03:40.084Z,18.88
2022-08-01T05:04:40.037Z,18.90
2022-08-01T05:05:40.018Z,18.91
2022-08-01T05:06:40.069Z,18.93
2022-08-01T05:07:44.297Z,18.94
2022-08-01T05:08:40.010Z,18.94
2022-08-01T05:09:39.984Z,18.95
2022-08-01T05:10:39.964Z,18.96
2022-08-01T05:11:39.938Z,18.96
2022-08-01T05:12:39.953Z,18.96
2022-08-01T05:13:39.932Z,18.96
2022-08-01T05:14:39.895Z,18.95
2022-08-01T05:15:39.903Z,18.94
2022-08-01T05:16:39.872Z,18.94
2022-08-01T05:17:39.865Z,18.94
2022-08-01T05:18:39.863Z,18.94
2022-08-01T05:19:39.861Z,18.93
2022-08-01T05:20:39.831Z,18.93
2022-08-01T05:21:39.873Z,18.94
2022-08-01T05:22:39.828Z,18.95
2022-08-01T05:23:43.106Z,18.96
2022-08-01T05:24:40.200Z,18.96
2022-08-01T05:25:57.880Z,18.96
2022-08-01T05:26:39.786Z,18.96
2022-08-01T05:27:39.772Z,18.97
2022-08-01T05:28:39.730Z,18.96
2022-08-01T05:29:44.387Z,18.96
2022-08-01T05:30:39.691Z,18.96
2022-08-01T05:31:39.691Z,18.96
2022-08-01T05:32:39.677Z,18.97
2022-08-01T05:33:39.654Z,18.97
2022-08-01T05:34:39.658Z,18.99
2022-08-01T05:35:49.092Z,19.02
2022-08-01T05:36:39.632Z,19.04
2022-08-01T05:37:39.603Z,19.07
2022-08-01T05:38:39.581Z,19.10
2022-08-01T05:39:39.600Z,19.13
2022-08-01T05:40:39.568Z,19.16
2022-08-01T05:41:39.545Z,19.20
2022-08-01T05:42:39.559Z,19.26
2022-08-01T05:43:39.521Z,19.33
2022-08-01T05:44:39.494Z,19.37
2022-08-01T05:45:39.492Z,19.41
2022-08-01T05:46:39.506Z,19.43
2022-08-01T05:47:43.129Z,19.44
2022-08-01T05:48:39.465Z,19.44
2022-08-01T05:49:39.458Z,19.44
2022-08-01T05:50:39.436Z,19.46
2022-08-01T05:51:39.408Z,19.49
2022-08-01T05:52:39.427Z,19.53
2022-08-01T05:53:39.407Z,19.58
2022-08-01T05:54:39.395Z,19.65
2022-08-01T05:55:39.359Z,19.73
2022-08-01T05:56:39.356Z,19.80
2022-08-01T05:57:40.705Z,19.86
2022-08-01T05:58:39.353Z,19.91
2022-08-01T05:59:39.325Z,19.94
2022-08-01T06:00:39.310Z,19.96
2022-08-01T06:01:39.309Z,19.99
2022-08-01T06:02:39.330Z,20.02
2022-08-01T06:03:39.253Z,20.06
2022-08-01T06:04:39.249Z,20.10
2022-08-01T06:05:39.246Z,20.15
2022-08-01T06:06:39.233Z,20.18
2022-08-01T06:07:39.205Z,20.19
2022-08-01T06:08:39.231Z,20.20
2022-08-01T06:09:39.219Z,20.21
2022-08-01T06:10:39.162Z,20.20
2022-08-01T06:11:39.174Z,20.17
2022-08-01T06:12:39.136Z,20.15
2022-08-01T06:13:45.580Z,20.13
2022-08-01T06:14:39.118Z,20.10
2022-08-01T06:15:39.113Z,20.05
2022-08-01T06:16:39.102Z,20.00
2022-08-01T06:17:39.085Z,19.94
2022-08-01T06:18:39.057Z,19.90
2022-08-01T06:19:39.046Z,19.87
2022-08-01T06:20:39.047Z,19.87
2022-08-01T06:21:39.077Z,19.89
2022-08-01T06:22:38.999Z,19.92
2022-08-01T06:23:39.006Z,19.98
2022-08-01T06:24:38.982Z,20.02
2022-08-01T06:25:38.973Z,20.06
2022-08-01T06:26:38.953Z,20.09
2022-08-01T06:27:38.979Z,20.13
2022-08-01T06:28:38.935Z,20.16
2022-08-01T06:29:38.916Z,20.19
2022-08-01T06:30:38.922Z,20.21
2022-08-01T06:31:39.063Z,20.21
2022-08-01T06:32:38.891Z,20.20
2022-08-01T06:33:38.876Z,20.22
2022-08-01T06:34:38.864Z,20.26
2022-08-01T06:35:38.936Z,20.31
2022-08-01T06:36:38.832Z,20.33
2022-08-01T06:37:38.822Z,20.31
2022-08-01T06:38:38.803Z,20.28
2022-08-01T06:39:38.814Z,20.24
2022-08-01T06:40:38.761Z,20.18
2022-08-01T06:41:38.758Z,20.13
2022-08-01T06:42:38.744Z,20.10
2022-08-01T06:43:38.768Z,20.08
2022-08-01T06:44:38.731Z,20.07
2022-08-01T06:45:38.737Z,20.07
2022-08-01T06:46:38.691Z,20.07
2022-08-01T06:47:38.706Z,20.08
2022-08-01T06:48:38.658Z,20.10
2022-08-01T06:49:38.753Z,20.12
2022-08-01T06:50:38.656Z,20.14
2022-08-01T06:51:38.645Z,20.17
2022-08-01T06:52:38.630Z,20.21
2022-08-01T06:53:38.686Z,20.26
2022-08-01T06:54:38.582Z,20.31
2022-08-01T06:55:38.607Z,20.35
2022-08-01T06:56:38.582Z,20.37
2022-08-01T06:57:38.547Z,20.34
2022-08-01T06:58:38.652Z,20.32
2022-08-01T06:59:38.544Z,20.31
2022-08-01T07:00:38.569Z,20.29
2022-08-01T07:01:38.561Z,20.26
2022-08-01T07:02:38.479Z,20.19
2022-08-01T07:03:53.013Z,20.10
2022-08-01T07:04:38.465Z,20.01
2022-08-01T07:05:38.466Z,19.92
2022-08-01T07:06:38.470Z,19.82
2022-08-01T07:07:38.449Z,19.72
2022-08-01T07:08:38.402Z,19.66
2022-08-01T07:09:38.413Z,19.64
2022-08-01T07:10:38.396Z,19.64
2022-08-01T07:11:38.409Z,19.68
2022-08-01T07:12:38.418Z,19.78
2022-08-01T07:13:45.625Z,19.93
2022-08-01T07:14:38.337Z,20.10
2022-08-01T07:15:38.778Z,20.26
2022-08-01T07:16:38.324Z,20.45
2022-08-01T07:17:38.448Z,20.61
2022-08-01T07:18:38.288Z,20.72
2022-08-01T07:19:38.512Z,20.80
2022-08-01T07:20:51.196Z,20.86
2022-08-01T07:21:41.059Z,20.90
2022-08-01T07:22:38.226Z,20.93
2022-08-01T07:23:38.939Z,20.96
2022-08-01T07:24:38.367Z,21.02
2022-08-01T07:25:38.217Z,21.13
2022-08-01T07:26:38.194Z,21.29
2022-08-01T07:27:38.172Z,21.46
2022-08-01T07:28:43.922Z,21.62
2022-08-01T07:29:38.153Z,21.71
2022-08-01T07:30:38.129Z,21.72
2022-08-01T07:31:38.118Z,21.72
2022-08-01T07:32:38.101Z,21.70
2022-08-01T07:33:48.775Z,21.67
2022-08-01T07:34:38.071Z,21.64
2022-08-01T07:35:38.059Z,21.65
2022-08-01T07:36:38.115Z,21.65
2022-08-01T07:37:45.495Z,21.63
2022-08-01T07:38:38.015Z,21.60
2022-08-01T07:39:38.030Z,21.58
2022-08-01T07:40:38.002Z,21.61
2022-08-01T07:41:54.653Z,21.68
2022-08-01T07:42:37.970Z,21.79
2022-08-01T07:43:37.962Z,21.92
2022-08-01T07:44:37.941Z,21.98
2022-08-01T07:45:37.953Z,21.92
2022-08-01T07:46:37.905Z,21.81
2022-08-01T07:47:37.897Z,21.69
2022-08-01T07:48:37.894Z,21.62
2022-08-01T07:49:40.681Z,21.61
2022-08-01T07:50:37.866Z,21.60
2022-08-01T07:51:37.960Z,21.55
2022-08-01T07:52:37.833Z,21.45
2022-08-01T07:53:37.822Z,21.33
2022-08-01T07:54:37.824Z,21.20
2022-08-01T07:55:37.825Z,21.07
2022-08-01T07:56:37.866Z,20.95
2022-08-01T07:57:37.781Z,20.81
2022-08-01T07:58:37.748Z,20.67
2022-08-01T07:59:37.757Z,20.55
2022-08-01T08:00:37.732Z,20.47
2022-08-01T08:01:37.766Z,20.42
2022-08-01T08:02:37.932Z,20.39
2022-08-01T08:03:37.708Z,20.39
2022-08-01T08:04:37.685Z,20.41
2022-08-01T08:05:58.461Z,20.49
2022-08-01T08:06:37.693Z,20.63
2022-08-01T08:07:37.675Z,20.81
2022-08-01T08:08:37.611Z,21.02
2022-08-01T08:09:37.961Z,21.22
2022-08-01T08:10:37.609Z,21.42
2022-08-01T08:11:37.587Z,21.56
2022-08-01T08:12:37.767Z,21.62
2022-08-01T08:13:37.810Z,21.64
2022-08-01T08:14:37.573Z,21.62
2022-08-01T08:15:37.540Z,21.57
2022-08-01T08:16:37.553Z,21.52
2022-08-01T08:17:37.522Z,21.47
2022-08-01T08:18:37.522Z,21.43
2022-08-01T08:19:38.916Z,21.38
2022-08-01T08:20:37.459Z,21.24
2022-08-01T08:21:37.462Z,21.07
2022-08-01T08:22:37.467Z,20.94
2022-08-01T08:23:42.925Z,20.84
2022-08-01T08:24:37.442Z,20.76
2022-08-01T08:25:37.439Z,20.70
2022-08-01T08:26:37.459Z,20.65
2022-08-01T08:27:37.930Z,20.61
2022-08-01T08:28:37.447Z,20.57
2022-08-01T08:29:37.501Z,20.54
2022-08-01T08:30:37.779Z,20.52
2022-08-01T08:31:51.212Z,20.49
2022-08-01T08:32:37.617Z,20.48
2022-08-01T08:33:37.328Z,20.49
2022-08-01T08:34:37.332Z,20.50
2022-08-01T08:35:40.528Z,20.52
2022-08-01T08:36:37.311Z,20.53
2022-08-01T08:37:39.042Z,20.53
2022-08-01T08:38:37.382Z,20.49
2022-08-01T08:39:41.648Z,20.44
2022-08-01T08:40:37.226Z,20.39
2022-08-01T08:41:38.166Z,20.34
2022-08-01T08:42:37.223Z,20.31
2022-08-01T08:43:37.191Z,20.28
2022-08-01T08:44:37.154Z,20.27
2022-08-01T08:45:58.238Z,20.28
2022-08-01T08:46:37.141Z,20.29
2022-08-01T08:47:37.126Z,20.31
2022-08-01T08:48:37.113Z,20.36
2022-08-01T08:49:37.138Z,20.40
2022-08-01T08:50:37.090Z,20.41
2022-08-01T08:51:37.057Z,20.41
2022-08-01T08:52:37.047Z,20.42
2022-08-01T08:53:37.036Z,20.46
2022-08-01T08:54:37.017Z,20.52
2022-08-01T08:55:55.813Z,20.58
2022-08-01T08:56:37.017Z,20.67
2022-08-01T08:57:36.979Z,20.82
2022-08-01T08:58:36.968Z,20.96
2022-08-01T08:59:36.952Z,21.09
2022-08-01T09:00:36.950Z,21.18
2022-08-01T09:01:36.945Z,21.37
2022-08-01T09:02:36.947Z,21.76
2022-08-01T09:03:37.036Z,22.21
2022-08-01T09:04:36.893Z,22.69
2022-08-01T09:05:39.136Z,23.16
2022-08-01T09:06:36.875Z,23.55
2022-08-01T09:07:36.860Z,23.87
2022-08-01T09:08:36.835Z,24.16
2022-08-01T09:09:36.846Z,24.19
2022-08-01T09:10:36.837Z,24.10
2022-08-01T09:11:36.813Z,24.05
2022-08-01T09:12:36.787Z,23.89
2022-08-01T09:13:36.766Z,23.63
2022-08-01T09:14:36.821Z,23.45
2022-08-01T09:15:36.771Z,23.35
2022-08-01T09:16:36.735Z,23.31
2022-08-01T09:17:36.720Z,23.33
2022-08-01T09:18:36.735Z,23.36
2022-08-01T09:19:39.915Z,23.34
2022-08-01T09:20:36.700Z,23.32
2022-08-01T09:21:36.683Z,23.29
2022-08-01T09:22:36.678Z,23.18
2022-08-01T09:23:36.681Z,23.01
2022-08-01T09:24:36.651Z,22.77
2022-08-01T09:25:36.802Z,22.56
2022-08-01T09:26:36.664Z,22.46
2022-08-01T09:27:36.595Z,22.41
2022-08-01T09:28:36.603Z,22.38
2022-08-01T09:29:38.080Z,22.36
2022-08-01T09:30:36.553Z,22.32
2022-08-01T09:31:37.854Z,22.26
2022-08-01T09:32:36.831Z,22.19
2022-08-01T09:33:37.065Z,22.12
2022-08-01T09:34:36.578Z,22.09
2022-08-01T09:35:43.845Z,22.07
2022-08-01T09:36:36.503Z,22.07
2022-08-01T09:37:37.010Z,22.07
2022-08-01T09:38:36.510Z,22.02
2022-08-01T09:39:36.460Z,21.97
2022-08-01T09:40:36.452Z,21.93
2022-08-01T09:41:37.726Z,21.87
2022-08-01T09:42:36.402Z,21.81
2022-08-01T09:43:36.380Z,21.80
2022-08-01T09:44:42.836Z,21.85
2022-08-01T09:45:41.608Z,21.92
2022-08-01T09:46:36.350Z,22.04
2022-08-01T09:47:36.389Z,22.14
2022-08-01T09:48:36.340Z,22.20
2022-08-01T09:49:50.830Z,22.22
2022-08-01T09:50:36.319Z,22.24
2022-08-01T09:52:00.190Z,22.27
2022-08-01T09:52:36.291Z,22.29
2022-08-01T09:53:38.111Z,22.30
2022-08-01T09:54:36.250Z,22.32
2022-08-01T09:55:36.239Z,22.32
2022-08-01T09:56:36.233Z,22.32
2022-08-01T09:57:36.229Z,22.29
2022-08-01T09:58:36.186Z,22.19
2022-08-01T09:59:56.706Z,22.06
2022-08-01T10:00:45.171Z,21.94
2022-08-01T10:01:38.374Z,21.88
2022-08-01T10:02:36.162Z,21.89
2022-08-01T10:03:36.226Z,21.92
2022-08-01T10:04:36.127Z,21.98
2022-08-01T10:05:37.257Z,22.06
2022-08-01T10:06:36.102Z,22.19
2022-08-01T10:07:43.659Z,22.33
2022-08-01T10:08:36.064Z,22.44
2022-08-01T10:09:40.883Z,22.50
2022-08-01T10:10:37.546Z,22.50
2022-08-01T10:11:36.788Z,22.46
2022-08-01T10:12:36.019Z,22.41
2022-08-01T10:13:36.768Z,22.35
2022-08-01T10:14:35.994Z,22.31
2022-08-01T10:15:36.863Z,22.26
2022-08-01T10:16:35.983Z,22.22
2022-08-01T10:17:49.974Z,22.22
2022-08-01T10:18:35.937Z,22.22
2022-08-01T10:19:35.933Z,22.16
2022-08-01T10:20:35.919Z,22.06
2022-08-01T10:21:56.793Z,21.96
2022-08-01T10:22:36.605Z,21.88
2022-08-01T10:23:40.081Z,21.83
2022-08-01T10:24:35.871Z,21.80
2022-08-01T10:25:43.431Z,21.78
2022-08-01T10:26:35.843Z,21.74
2022-08-01T10:27:38.101Z,21.69
2022-08-01T10:28:35.829Z,21.62
2022-08-01T10:29:46.866Z,21.52
2022-08-01T10:30:35.799Z,21.43
2022-08-01T10:31:35.769Z,21.39
2022-08-01T10:32:35.743Z,21.35
2022-08-01T10:33:52.372Z,21.31
2022-08-01T10:34:35.740Z,21.27
2022-08-01T10:35:46.501Z,21.27
2022-08-01T10:36:35.713Z,21.30
2022-08-01T10:37:35.704Z,21.32
2022-08-01T10:38:35.703Z,21.34
2022-08-01T10:39:35.658Z,21.37
2022-08-01T10:40:35.657Z,21.39
2022-08-01T10:41:35.654Z,21.41
2022-08-01T10:42:35.625Z,21.44
2022-08-01T10:43:35.821Z,21.52
2022-08-01T10:44:35.608Z,21.59
2022-08-01T10:45:35.600Z,21.65
2022-08-01T10:46:35.556Z,21.67
2022-08-01T10:47:50.097Z,21.64
2022-08-01T10:48:35.673Z,21.59
2022-08-01T10:49:35.621Z,21.57
2022-08-01T10:50:35.512Z,21.59
2022-08-01T10:51:51.925Z,21.61
2022-08-01T10:52:39.550Z,21.67
2022-08-01T10:53:42.997Z,21.74
2022-08-01T10:54:35.488Z,21.81
2022-08-01T10:55:35.449Z,21.85
2022-08-01T10:56:35.426Z,21.87
2022-08-01T10:57:35.471Z,21.89
2022-08-01T10:58:39.849Z,21.95
2022-08-01T10:59:49.900Z,22.05
2022-08-01T11:00:35.440Z,22.18
2022-08-01T11:01:36.651Z,22.31
2022-08-01T11:02:35.442Z,22.43
2022-08-01T11:03:55.484Z,22.53
2022-08-01T11:04:35.352Z,22.56
2022-08-01T11:05:35.349Z,22.53
2022-08-01T11:06:35.298Z,22.48
2022-08-01T11:07:35.312Z,22.39
2022-08-01T11:08:35.290Z,22.29
2022-08-01T11:09:36.890Z,22.22
2022-08-01T11:10:35.249Z,22.20
2022-08-01T11:11:35.250Z,22.20
2022-08-01T11:12:35.396Z,22.24
2022-08-01T11:13:35.199Z,22.29
2022-08-01T11:14:55.202Z,22.34
2022-08-01T11:15:35.216Z,22.37
2022-08-01T11:16:35.179Z,22.35
2022-08-01T11:17:37.869Z,22.31
2022-08-01T11:18:37.615Z,22.28
2022-08-01T11:19:35.149Z,22.27
2022-08-01T11:20:42.467Z,22.24
2022-08-01T11:21:57.129Z,22.22
2022-08-01T11:22:35.116Z,22.22
2022-08-01T11:23:36.071Z,22.22
2022-08-01T11:24:35.114Z,22.20
2022-08-01T11:26:06.607Z,22.18
2022-08-01T11:26:35.044Z,22.19
2022-08-01T11:27:35.066Z,22.20
2022-08-01T11:28:36.683Z,22.22
2022-08-01T11:29:34.991Z,22.24
2022-08-01T11:30:35.034Z,22.28
2022-08-01T11:31:37.017Z,22.31
2022-08-01T11:32:47.280Z,22.32
2022-08-01T11:33:34.965Z,22.30
2022-08-01T11:34:34.927Z,22.24
2022-08-01T11:35:34.938Z,22.18
2022-08-01T11:36:58.300Z,22.16
2022-08-01T11:37:34.887Z,22.17
2022-08-01T11:38:34.893Z,22.19
2022-08-01T11:39:38.844Z,22.21
2022-08-01T11:40:34.874Z,22.22
2022-08-01T11:41:37.057Z,22.23
2022-08-01T11:42:34.827Z,22.25
2022-08-01T11:43:34.815Z,22.27
2022-08-01T11:44:34.801Z,22.27
2022-08-01T11:45:34.800Z,22.28
2022-08-01T11:46:34.783Z,22.30
2022-08-01T11:47:36.513Z,22.30
2022-08-01T11:48:34.744Z,22.31
2022-08-01T11:49:34.867Z,22.32
2022-08-01T11:50:34.726Z,22.31
2022-08-01T11:51:35.880Z,22.23
2022-08-01T11:52:34.739Z,22.12
2022-08-01T11:53:34.695Z,22.01
2022-08-01T11:54:35.818Z,21.87
2022-08-01T11:55:34.666Z,21.67
2022-08-01T11:56:34.643Z,21.44
2022-08-01T11:57:35.702Z,21.21
2022-08-01T11:58:34.639Z,20.99
2022-08-01T11:59:37.864Z,20.77
2022-08-01T12:00:34.588Z,20.58
2022-08-01T12:01:34.585Z,20.42
2022-08-01T12:02:34.653Z,20.31
2022-08-01T12:03:34.868Z,20.24
2022-08-01T12:04:34.555Z,20.19
2022-08-01T12:05:34.517Z,20.15
2022-08-01T12:06:34.532Z,20.12
2022-08-01T12:07:34.496Z,20.11
2022-08-01T12:08:34.494Z,20.09
2022-08-01T12:09:34.492Z,20.07
2022-08-01T12:10:34.458Z,20.06
2022-08-01T12:11:37.011Z,20.05
2022-08-01T12:12:34.450Z,20.06
2022-08-01T12:13:34.420Z,20.08
2022-08-01T12:14:34.424Z,20.11
2022-08-01T12:15:34.441Z,20.11
2022-08-01T12:16:34.392Z,20.10
2022-08-01T12:17:34.377Z,20.12
2022-08-01T12:18:34.378Z,20.16
2022-08-01T12:19:34.356Z,20.21
2022-08-01T12:20:34.325Z,20.28
2022-08-01T12:21:34.354Z,20.39
2022-08-01T12:22:34.316Z,20.53
2022-08-01T12:23:34.303Z,20.72
2022-08-01T12:24:34.304Z,20.90
2022-08-01T12:25:34.285Z,21.07
2022-08-01T12:26:34.264Z,21.25
2022-08-01T12:27:34.229Z,21.47
2022-08-01T12:28:34.245Z,21.72
2022-08-01T12:29:34.224Z,21.96
2022-08-01T12:30:34.211Z,22.19
2022-08-01T12:31:34.206Z,22.38
2022-08-01T12:32:35.556Z,22.50
2022-08-01T12:33:35.281Z,22.59
2022-08-01T12:34:34.164Z,22.71
2022-08-01T12:35:34.144Z,22.89
2022-08-01T12:36:34.146Z,23.17
2022-08-01T12:37:34.105Z,23.52
2022-08-01T12:38:34.098Z,23.91
2022-08-01T12:39:34.142Z,24.23
2022-08-01T12:40:34.083Z,24.41
2022-08-01T12:41:34.087Z,24.46
2022-08-01T12:42:34.053Z,24.44
2022-08-01T12:43:34.053Z,24.39
2022-08-01T12:44:34.031Z,24.27
2022-08-01T12:45:34.011Z,24.19
2022-08-01T12:46:33.994Z,24.23
2022-08-01T12:47:33.997Z,24.34
2022-08-01T12:48:33.975Z,24.44
2022-08-01T12:49:34.055Z,24.51
2022-08-01T12:50:33.958Z,24.52
2022-08-01T12:51:33.919Z,24.43
2022-08-01T12:52:33.923Z,24.33